Time;durP1;ratioP1;P1;durP2;ratioP2;P2;SDS_P1;SDS_P2;PMS_P1;PMS_P2;Temp;Humidity;BMP_temperature;BMP_pressure;BME280_temperature;BME280_humidity;BME280_pressure;Samples;Min_cycle;Max_cycle;Signal;HPM_P1;HPM_P2
2023/09/10 00:03:27;;;;;;;7.82;5.22;;;;;;;19.24;52.26;98020.28;10461287;28;20443;-63
2023/09/10 00:08:48;;;;;;;11.27;4.63;;;;;;;19.13;52.39;98022.00;10461179;28;20068;-63
2023/09/10 00:14:09;;;;;;;9.60;4.50;;;;;;;19.02;52.61;98011.69;10460753;28;20119;-63
2023/09/10 00:19:30;;;;;;;10.50;4.80;;;;;;;18.94;53.05;98016.28;10460664;28;20073;-63
2023/09/10 00:24:50;;;;;;;9.90;4.88;;;;;;;18.84;53.19;98014.50;10444901;28;20502;-63
2023/09/10 00:30:11;;;;;;;8.60;5.20;;;;;;;18.76;53.35;98016.28;10460234;28;20041;-63
2023/09/10 00:35:32;;;;;;;6.97;5.00;;;;;;;18.73;53.73;98020.41;10445445;28;20049;-63
2023/09/10 00:40:53;;;;;;;9.93;5.25;;;;;;;18.69;53.89;98014.59;10459870;28;20037;-63
2023/09/10 00:46:14;;;;;;;7.50;4.38;;;;;;;18.64;54.24;98015.78;10445002;28;20493;-63
2023/09/10 00:51:36;;;;;;;7.68;5.03;;;;;;;18.59;54.18;98015.59;10430898;28;20128;-63
2023/09/10 00:56:56;;;;;;;9.27;4.65;;;;;;;18.56;54.54;98013.34;10444775;28;20163;-63
2023/09/10 01:02:17;;;;;;;7.45;4.88;;;;;;;18.57;55.03;98015.53;10430563;28;20128;-63
2023/09/10 01:07:38;;;;;;;7.07;4.90;;;;;;;18.57;54.77;98009.16;10444168;28;20075;-63
2023/09/10 01:13:09;;;;;;;7.32;4.78;;;;;;;18.57;54.74;98007.06;10444041;28;20083;-63
2023/09/10 01:18:55;;;;;;;7.28;4.78;;;;;;;18.53;55.31;98006.91;10443737;28;20075;-63
2023/09/10 01:24:47;;;;;;;9.10;5.20;;;;;;;18.52;55.40;98002.59;10430072;28;20041;-63
2023/09/10 01:30:09;;;;;;;7.32;4.95;;;;;;;18.46;55.18;98002.38;10454283;28;20048;-63
2023/09/10 01:35:33;;;;;;;6.57;4.72;;;;;;;18.40;55.34;97990.81;10456949;28;20079;-63
2023/09/10 01:41:02;;;;;;;6.47;4.63;;;;;;;18.41;55.67;97994.34;10442997;28;20068;-63
2023/09/10 01:46:23;;;;;;;7.85;4.28;;;;;;;18.35;55.71;98003.31;10428808;28;20534;-63
2023/09/10 01:51:44;;;;;;;9.43;4.90;;;;;;;18.33;55.69;97996.84;10428488;28;20554;-63
2023/09/10 01:57:05;;;;;;;6.78;4.57;;;;;;;18.34;55.89;98001.16;10441865;28;20073;-63
2023/09/10 02:02:26;;;;;;;8.48;4.70;;;;;;;18.27;56.44;98000.16;10441553;28;20083;-63
2023/09/10 02:07:46;;;;;;;7.10;4.90;;;;;;;18.20;56.26;98001.28;10456671;28;20049;-63
2023/09/10 02:13:07;;;;;;;11.50;4.72;;;;;;;18.16;56.13;98007.50;10441569;28;20103;-63
2023/09/10 02:18:28;;;;;;;7.47;5.18;;;;;;;18.12;56.33;98000.94;10456211;28;20462;-63
2023/09/10 02:23:49;;;;;;;6.78;4.38;;;;;;;18.13;56.37;98008.03;10441435;28;20075;-63
2023/09/10 02:29:10;;;;;;;6.55;4.90;;;;;;;18.08;56.91;98006.41;10440997;28;20092;-63
2023/09/10 02:34:30;;;;;;;5.75;4.47;;;;;;;18.01;56.71;98008.97;10456144;28;20167;-63
2023/09/10 02:39:51;;;;;;;8.52;4.82;;;;;;;17.97;56.82;98003.16;10455769;28;20148;-63
2023/09/10 02:45:12;;;;;;;7.97;4.35;;;;;;;17.93;57.06;98007.91;10455836;28;20163;-62
2023/09/10 02:50:33;;;;;;;7.47;4.57;;;;;;;17.85;57.44;98013.19;10435719;28;20117;-63
2023/09/10 02:56:00;;;;;;;10.50;4.93;;;;;;;17.78;57.75;98015.03;10464273;28;20545;-63
2023/09/10 03:01:21;;;;;;;7.70;4.82;;;;;;;17.71;57.81;98013.31;10464103;28;20041;-63
2023/09/10 03:06:45;;;;;;;7.10;4.78;;;;;;;17.59;57.91;98015.59;10448498;28;20092;-63
2023/09/10 03:12:20;;;;;;;13.50;5.45;;;;;;;17.49;58.28;98012.31;10463624;28;20123;-62
2023/09/10 03:17:40;;;;;;;7.75;4.82;;;;;;;17.41;58.42;97999.28;10461935;28;20125;-63
2023/09/10 03:23:02;;;;;;;6.30;4.88;;;;;;;17.29;58.87;98006.47;10447776;28;20076;-63
2023/09/10 03:28:23;;;;;;;6.88;4.72;;;;;;;17.18;59.36;98008.13;10448045;28;20155;-62
2023/09/10 03:33:44;;;;;;;6.45;4.43;;;;;;;17.06;59.24;98001.91;10447555;28;20121;-63
2023/09/10 03:39:05;;;;;;;8.68;4.90;;;;;;;16.94;59.24;98001.34;10447452;28;20123;-63
2023/09/10 03:44:26;;;;;;;7.30;5.30;;;;;;;16.90;59.70;98006.81;10447201;28;20454;-62
2023/09/10 03:49:47;;;;;;;7.95;5.00;;;;;;;16.84;59.87;98015.69;10447140;28;20576;-63
2023/09/10 03:55:09;;;;;;;6.38;4.85;;;;;;;16.78;60.00;98018.94;10460811;28;20072;-62
2023/09/10 04:00:30;;;;;;;9.85;5.00;;;;;;;16.75;60.29;98014.56;10460686;28;20121;-63
2023/09/10 04:05:52;;;;;;;9.25;4.80;;;;;;;16.65;60.30;98005.59;10432686;28;20053;-63
2023/09/10 04:11:13;;;;;;;8.57;5.05;;;;;;;16.55;60.62;98005.13;10446264;28;20120;-63
2023/09/10 04:16:34;;;;;;;8.95;5.50;;;;;;;16.47;60.84;98004.72;10461226;28;20070;-63
2023/09/10 04:21:54;;;;;;;7.10;4.95;;;;;;;16.46;61.07;98006.81;10445879;28;20364;-63
2023/09/10 04:27:16;;;;;;;6.45;4.60;;;;;;;16.50;61.08;98014.72;10460521;28;20156;-62
2023/09/10 04:32:37;;;;;;;8.88;5.28;;;;;;;16.49;61.28;98010.47;10445509;28;20080;-62
2023/09/10 04:37:59;;;;;;;9.53;4.50;;;;;;;16.51;61.40;98007.75;10445473;28;20455;-63
2023/09/10 04:43:20;;;;;;;7.20;4.65;;;;;;;16.58;61.52;98023.56;10445388;28;20160;-62
2023/09/10 04:48:41;;;;;;;9.23;5.43;;;;;;;16.80;61.43;98023.97;10460406;28;20574;-62
2023/09/10 04:54:02;;;;;;;5.60;4.50;;;;;;;17.11;61.53;98037.41;10445206;28;20066;-62
2023/09/10 04:59:23;;;;;;;6.65;5.03;;;;;;;17.50;61.40;98039.16;10458796;28;20128;-64
2023/09/10 05:04:44;;;;;;;6.10;4.70;;;;;;;17.99;61.13;98042.06;10459740;28;20140;-64
2023/09/10 05:10:05;;;;;;;7.25;5.00;;;;;;;20.58;59.56;98058.34;10444342;28;20045;-61
2023/09/10 05:15:26;;;;;;;7.90;4.50;;;;;;;24.51;54.17;98057.00;10459313;28;20167;-61
2023/09/10 05:20:50;;;;;;;7.68;4.57;;;;;;;27.82;49.00;98062.16;10459052;28;20210;-62
2023/09/10 05:26:11;;;;;;;5.97;4.55;;;;;;;31.09;44.09;98072.25;10444051;28;20084;-62
2023/09/10 05:31:32;;;;;;;6.07;4.20;;;;;;;33.77;38.91;98064.84;10458683;28;20131;-64
2023/09/10 05:36:53;;;;;;;6.93;4.50;;;;;;;36.05;34.27;98073.84;10443402;28;20115;-65
2023/09/10 05:42:14;;;;;;;7.32;4.28;;;;;;;37.43;29.63;98073.84;10443096;28;20231;-65
2023/09/10 05:47:35;;;;;;;6.65;4.53;;;;;;;38.76;24.86;98073.22;10442937;28;20124;-65
2023/09/10 05:52:56;;;;;;;6.07;4.10;;;;;;;40.26;22.39;98083.53;10443171;28;20075;-65
2023/09/10 05:58:18;;;;;;;6.00;4.38;;;;;;;41.73;20.10;98082.88;10457432;28;20096;-66
2023/09/10 06:03:40;;;;;;;7.05;3.97;;;;;;;42.58;18.38;98083.41;10441874;28;20560;-66
2023/09/10 06:09:01;;;;;;;4.90;3.67;;;;;;;44.43;16.75;98074.50;10441997;28;20088;-67
2023/09/10 06:14:23;;;;;;;4.75;3.55;;;;;;;45.90;15.09;98079.38;10441874;28;20072;-68
2023/09/10 06:19:44;;;;;;;4.85;3.67;;;;;;;48.27;13.19;98083.03;10456861;28;20059;-65
2023/09/10 06:25:05;;;;;;;4.05;3.65;;;;;;;51.62;10.48;98079.63;10455406;28;20068;-68
2023/09/10 06:30:27;;;;;;;5.20;3.13;;;;;;;53.70;8.91;98071.63;10456667;28;20127;-68
2023/09/10 06:35:48;;;;;;;3.80;3.50;;;;;;;54.30;7.41;98069.78;10441861;28;20053;-68
2023/09/10 06:41:09;;;;;;;5.28;3.38;;;;;;;56.12;7.62;98071.38;10441578;28;20044;-68
2023/09/10 06:46:31;;;;;;;6.78;3.38;;;;;;;57.34;6.59;98063.06;10456549;28;20129;-68
2023/09/10 06:51:51;;;;;;;4.45;3.10;;;;;;;56.39;6.60;98071.34;10456317;28;20102;-68
2023/09/10 06:57:13;;;;;;;5.70;2.70;;;;;;;58.19;5.57;98069.97;10427784;28;20061;-68
2023/09/10 07:02:34;;;;;;;4.15;2.80;;;;;;;59.11;5.78;98066.78;10455530;28;20065;-67
2023/09/10 07:07:55;;;;;;;4.70;3.05;;;;;;;58.66;4.98;98060.44;10441337;28;20057;-69
2023/09/10 07:13:16;;;;;;;5.30;2.95;;;;;;;58.65;5.16;98062.75;10455794;28;20041;-67
2023/09/10 07:18:37;;;;;;;4.90;3.10;;;;;;;59.45;5.27;98070.66;10440813;28;20124;-67
2023/09/10 07:23:59;;;;;;;4.50;2.83;;;;;;;60.76;4.47;98075.25;10455574;28;20418;-68
2023/09/10 07:29:20;;;;;;;6.60;3.00;;;;;;;61.82;3.96;98079.50;10440839;28;20052;-67
2023/09/10 07:34:41;;;;;;;6.55;3.00;;;;;;;61.77;3.77;98070.31;10459118;28;20049;-68
2023/09/10 07:40:02;;;;;;;5.43;2.90;;;;;;;61.61;4.18;98069.59;10462745;28;20543;-69
2023/09/10 07:45:24;;;;;;;3.85;2.90;;;;;;;61.43;3.65;98060.72;10462865;28;20048;-68
2023/09/10 07:50:57;;;;;;;6.50;3.50;;;;;;;61.73;4.06;98055.81;10447812;28;20056;-68
2023/09/10 07:56:18;;;;;;;3.40;2.88;;;;;;;61.34;3.19;98057.47;10462243;28;20107;-68
2023/09/10 08:01:39;;;;;;;4.13;3.17;;;;;;;59.22;4.21;98051.81;10462311;28;20530;-68
2023/09/10 08:07:03;;;;;;;5.05;3.13;;;;;;;59.84;4.28;98045.25;10461874;28;20053;-68
2023/09/10 08:12:24;;;;;;;3.55;2.85;;;;;;;60.36;3.71;98051.94;10461743;28;20049;-67
2023/09/10 08:17:45;;;;;;;6.10;3.03;;;;;;;59.92;4.60;98050.22;10461736;28;20069;-68
2023/09/10 08:23:07;;;;;;;4.40;3.08;;;;;;;59.67;4.56;98046.03;10461396;28;20049;-67
2023/09/10 08:28:28;;;;;;;3.05;2.83;;;;;;;60.21;3.97;98052.47;10461039;28;20045;-68
2023/09/10 08:33:49;;;;;;;6.47;3.60;;;;;;;59.61;4.70;98055.84;10432325;28;20398;-68
2023/09/10 08:39:10;;;;;;;5.32;3.40;;;;;;;59.75;4.80;98045.66;10460850;28;20449;-68
2023/09/10 08:44:31;;;;;;;4.60;3.55;;;;;;;60.08;4.60;98057.09;10459947;28;20041;-68
2023/09/10 08:49:55;;;;;;;5.53;3.33;;;;;;;59.01;4.66;98045.41;10431781;28;20107;-68
2023/09/10 08:55:16;;;;;;;3.97;3.60;;;;;;;59.06;4.80;98042.56;10431477;28;20056;-68
2023/09/10 09:00:37;;;;;;;4.00;3.67;;;;;;;57.62;5.47;98046.94;10444992;28;20049;-68
2023/09/10 09:05:58;;;;;;;7.45;3.72;;;;;;;58.01;5.09;98038.50;10459583;28;20384;-68
2023/09/10 09:11:19;;;;;;;4.20;3.80;;;;;;;57.87;5.13;98038.63;10444517;28;20140;-68
2023/09/10 09:16:41;;;;;;;4.32;3.90;;;;;;;58.97;4.87;98036.19;10430839;28;20059;-68
2023/09/10 09:22:04;;;;;;;4.97;4.13;;;;;;;59.39;4.17;98036.06;10458932;28;20053;-68
2023/09/10 09:27:26;;;;;;;4.97;4.57;;;;;;;58.18;5.04;98037.88;10458899;28;20124;-68
2023/09/10 09:32:47;;;;;;;4.60;4.20;;;;;;;57.83;5.23;98032.47;10458399;28;20087;-68
2023/09/10 09:38:15;;;;;;;5.03;4.60;;;;;;;58.36;4.96;98026.56;10443655;28;20049;-68
2023/09/10 09:43:38;;;;;;;5.05;4.57;;;;;;;58.39;5.31;98036.03;10458147;28;20151;-68
2023/09/10 09:49:00;;;;;;;6.88;5.47;;;;;;;57.05;6.20;98026.81;10457766;28;20548;-68
2023/09/10 09:54:23;;;;;;;5.47;5.07;;;;;;;57.39;5.79;98008.56;10457873;28;20063;-68
2023/09/10 09:59:45;;;;;;;6.55;5.50;;;;;;;57.21;5.78;98015.16;10456798;28;20465;-68
2023/09/10 10:05:07;;;;;;;6.60;5.70;;;;;;;57.15;5.74;98012.91;10457286;28;20057;-68
2023/09/10 10:10:29;;;;;;;6.13;5.50;;;;;;;56.05;6.79;98007.84;10456943;28;20641;-68
2023/09/10 10:15:52;;;;;;;6.03;5.53;;;;;;;55.85;5.91;98004.19;10457089;28;20402;-67
2023/09/10 10:21:13;;;;;;;6.03;5.43;;;;;;;55.39;7.18;98001.88;10457214;28;20494;-68
2023/09/10 10:26:35;;;;;;;;;;;;;;;55.65;6.34;97998.22;10442534;28;20053;-67
2023/09/10 10:32:38;;;;;;;4.75;4.35;;;;;;;55.16;6.90;97994.75;10456919;28;19921;-68
2023/09/10 10:38:03;;;;;;;4.38;3.90;;;;;;;54.34;6.98;97979.06;10416133;28;20102;-68
2023/09/10 10:43:26;;;;;;;5.82;3.58;;;;;;;54.01;7.63;97979.56;10456307;28;20521;-68
2023/09/10 10:48:47;;;;;;;5.03;3.57;;;;;;;54.35;7.17;97971.50;10456386;28;20371;-68
2023/09/10 10:54:09;;;;;;;5.15;3.47;;;;;;;54.30;7.05;97982.50;10456434;28;20059;-68
2023/09/10 10:59:30;;;;;;;4.68;3.30;;;;;;;54.29;7.47;97975.13;10456194;28;20080;-68
2023/09/10 11:05:06;;;;;;;3.70;3.10;;;;;;;53.94;7.24;97972.88;10456018;28;20056;-68
2023/09/10 11:10:28;;;;;;;7.93;2.65;;;;;;;53.41;7.48;97965.84;10462504;28;20053;-68
2023/09/10 11:16:04;;;;;;;4.22;2.65;;;;;;;53.67;6.93;97965.34;10464013;28;20138;-68
2023/09/10 11:21:56;;;;;;;3.47;2.70;;;;;;;54.42;6.93;97957.28;10463773;28;20049;-68
2023/09/10 11:27:21;;;;;;;3.33;2.50;;;;;;;54.28;6.63;97955.84;10448400;28;20471;-67
2023/09/10 11:32:43;;;;;;;2.47;1.85;;;;;;;54.51;6.54;97960.75;10463041;28;20045;-67
2023/09/10 11:38:08;;;;;;;3.53;2.20;;;;;;;53.57;6.21;97952.22;10463045;28;20505;-66
2023/09/10 11:43:29;;;;;;;3.75;2.60;;;;;;;50.49;7.36;97963.88;10448189;28;20071;-66
2023/09/10 11:48:51;;;;;;;4.10;3.33;;;;;;;44.20;11.34;97954.63;10434241;28;20073;-66
2023/09/10 11:54:18;;;;;;;5.20;4.70;;;;;;;40.94;14.46;97960.34;10462453;28;20053;-65
2023/09/10 11:59:39;;;;;;;4.57;3.58;;;;;;;38.37;16.35;97966.91;10462439;28;20045;-66
2023/09/10 12:05:02;;;;;;;4.28;3.00;;;;;;;36.97;17.71;97966.31;10462181;28;20111;-66
2023/09/10 12:10:23;;;;;;;4.20;3.53;;;;;;;35.94;19.23;97950.75;10433470;28;20053;-66
2023/09/10 12:15:44;;;;;;;4.13;3.53;;;;;;;34.53;21.01;97961.84;10446931;28;20057;-66
2023/09/10 12:21:05;;;;;;;6.22;3.97;;;;;;;34.04;21.55;97955.00;10460622;28;20471;-66
2023/09/10 12:26:26;;;;;;;6.95;4.00;;;;;;;33.84;22.45;97959.06;10446396;28;20051;-65
2023/09/10 12:31:52;;;;;;;;;;;;;;;33.58;23.17;97953.84;10446481;28;20053;-65
2023/09/10 12:37:15;;;;;;;6.53;4.60;;;;;;;32.89;23.70;97950.09;10446952;28;19975;-63
2023/09/10 12:42:36;;;;;;;6.05;4.10;;;;;;;32.77;24.33;97938.03;10432172;28;20095;-65
2023/09/10 12:47:57;;;;;;;7.35;4.30;;;;;;;32.80;24.18;97936.53;10445869;28;20403;-65
2023/09/10 12:53:18;;;;;;;9.25;4.47;;;;;;;32.63;24.43;97928.16;10445534;28;20091;-65
2023/09/10 12:58:39;;;;;;;4.75;4.07;;;;;;;32.56;24.99;97935.50;10445277;28;20037;-65
2023/09/10 13:04:00;;;;;;;9.02;3.85;;;;;;;32.26;25.01;97933.09;10459890;28;20064;-65
2023/09/10 13:09:21;;;;;;;5.03;4.22;;;;;;;32.25;24.51;97923.00;10459621;28;20065;-65
2023/09/10 13:14:42;;;;;;;6.10;4.30;;;;;;;32.40;24.14;97924.94;10459357;28;20049;-65
2023/09/10 13:20:04;;;;;;;7.95;4.57;;;;;;;32.39;24.36;97928.56;10444504;28;20041;-65
2023/09/10 13:25:25;;;;;;;8.00;4.13;;;;;;;32.31;24.75;97920.75;10459039;28;20049;-65
2023/09/10 13:30:46;;;;;;;5.38;4.40;;;;;;;32.22;25.09;97927.38;10458867;28;20124;-65
2023/09/10 13:36:07;;;;;;;6.43;4.40;;;;;;;31.97;25.06;97912.63;10443554;28;20498;-65
2023/09/10 13:41:28;;;;;;;4.75;4.22;;;;;;;31.95;25.28;97904.72;10458315;28;20041;-64
2023/09/10 13:46:50;;;;;;;8.50;5.57;;;;;;;31.75;25.66;97910.72;10458221;28;20064;-63
2023/09/10 13:52:11;;;;;;;6.32;4.88;;;;;;;31.69;25.78;97913.72;10443251;28;20095;-63
2023/09/10 13:57:32;;;;;;;9.17;4.90;;;;;;;31.25;25.95;97904.91;10442786;28;20095;-65
2023/09/10 14:02:53;;;;;;;5.50;4.53;;;;;;;31.01;26.75;97897.25;10457707;28;20494;-63
2023/09/10 14:08:13;;;;;;;5.60;4.90;;;;;;;30.70;27.00;97901.91;10457669;28;20040;-63
2023/09/10 14:13:34;;;;;;;6.10;4.90;;;;;;;30.38;27.37;97897.84;10457287;28;20049;-63
2023/09/10 14:18:56;;;;;;;8.35;5.25;;;;;;;30.25;27.64;97899.41;10442426;28;20048;-63
2023/09/10 14:24:16;;;;;;;7.93;4.70;;;;;;;30.47;27.57;97895.59;10456786;28;20049;-63
2023/09/10 14:29:37;;;;;;;5.43;4.38;;;;;;;30.60;27.46;97899.09;10456848;28;20056;-63
2023/09/10 14:34:58;;;;;;;5.45;4.50;;;;;;;30.71;26.92;97891.81;10456867;28;20057;-63
2023/09/10 14:40:19;;;;;;;10.27;5.20;;;;;;;30.35;27.68;97899.31;10425288;28;20060;-63
2023/09/10 14:45:40;;;;;;;5.15;4.22;;;;;;;30.27;27.69;97887.16;10469228;28;20395;-63
2023/09/10 14:51:01;;;;;;;7.57;4.82;;;;;;;30.26;27.89;97885.72;10469994;28;20052;-63
2023/09/10 14:56:21;;;;;;;7.18;4.72;;;;;;;30.15;27.77;97887.97;10470276;28;20060;-63
2023/09/10 15:01:42;;;;;;;7.78;4.88;;;;;;;30.01;28.23;97882.28;10454948;28;20040;-63
2023/09/10 15:07:03;;;;;;;7.38;4.93;;;;;;;29.70;28.71;97891.13;10441190;28;20380;-63
2023/09/10 15:12:24;;;;;;;6.53;4.95;;;;;;;29.72;28.99;97887.53;10469915;28;20475;-63
2023/09/10 15:17:45;;;;;;;5.10;4.22;;;;;;;29.59;28.51;97884.00;10469486;28;20076;-63
2023/09/10 15:23:06;;;;;;;6.65;4.50;;;;;;;29.55;28.96;97884.03;10469736;28;20079;-63
2023/09/10 15:28:27;;;;;;;8.07;5.17;;;;;;;29.39;29.23;97881.22;10440602;28;20059;-63
2023/09/10 15:33:49;;;;;;;6.60;5.10;;;;;;;29.16;29.80;97874.88;10454641;28;20091;-63
2023/09/10 15:39:12;;;;;;;6.32;4.55;;;;;;;29.02;29.83;97875.63;10469119;28;20064;-63
2023/09/10 15:44:33;;;;;;;6.05;4.55;;;;;;;28.96;30.03;97870.63;10440679;28;20420;-63
2023/09/10 15:49:56;;;;;;;7.55;4.90;;;;;;;28.90;30.21;97869.94;10454378;28;20057;-63
2023/09/10 15:55:17;;;;;;;6.15;5.00;;;;;;;28.84;30.54;97872.78;10463944;28;20049;-63
2023/09/10 16:00:40;;;;;;;9.98;5.00;;;;;;;28.70;31.00;97862.06;10447432;28;20049;-63
2023/09/10 16:06:02;;;;;;;7.57;4.20;;;;;;;28.59;31.14;97852.75;10447376;28;20049;-63
2023/09/10 16:11:23;;;;;;;6.88;4.55;;;;;;;28.52;31.12;97859.94;10461941;28;20072;-63
2023/09/10 16:16:44;;;;;;;8.82;5.15;;;;;;;28.40;31.32;97866.44;10461463;28;20083;-63
2023/09/10 16:22:05;;;;;;;7.15;4.60;;;;;;;28.20;31.89;97860.69;10461450;28;20053;-62
2023/09/10 16:27:28;;;;;;;8.65;5.13;;;;;;;28.10;31.96;97864.28;10461131;28;20095;-63
2023/09/10 16:32:49;;;;;;;8.73;5.43;;;;;;;27.89;32.24;97857.81;10461018;28;20045;-63
2023/09/10 16:38:10;;;;;;;10.15;6.45;;;;;;;27.71;32.88;97869.25;10461021;28;20065;-63
2023/09/10 16:43:31;;;;;;;9.27;5.10;;;;;;;27.51;33.21;97872.78;10445526;28;20037;-63
2023/09/10 16:48:52;;;;;;;10.18;5.32;;;;;;;27.33;33.99;97869.88;10460606;28;20048;-63
2023/09/10 16:54:14;;;;;;;6.75;4.82;;;;;;;27.07;34.24;97865.47;10431372;28;20068;-63
2023/09/10 16:59:34;;;;;;;6.90;4.70;;;;;;;26.80;35.11;97864.59;10445345;28;20121;-63
2023/09/10 17:04:55;;;;;;;7.65;4.57;;;;;;;26.56;34.82;97870.19;10459212;28;20091;-63
2023/09/10 17:10:16;;;;;;;9.52;5.00;;;;;;;26.34;35.46;97862.13;10459582;28;20406;-63
2023/09/10 17:15:37;;;;;;;5.65;4.55;;;;;;;26.11;35.67;97875.56;10444676;28;20044;-63
2023/09/10 17:20:58;;;;;;;6.55;4.57;;;;;;;25.90;36.23;97856.81;10459075;28;20080;-63
2023/09/10 17:26:19;;;;;;;7.63;4.85;;;;;;;25.75;36.25;97869.50;10459110;28;20130;-63
2023/09/10 17:31:40;;;;;;;7.43;4.72;;;;;;;25.57;36.99;97867.16;10430162;28;20045;-63
2023/09/10 17:37:01;;;;;;;5.85;4.78;;;;;;;25.40;37.35;97855.59;10458552;28;20459;-63
2023/09/10 17:42:22;;;;;;;7.40;4.55;;;;;;;25.18;37.57;97861.03;10458476;28;20107;-63
2023/09/10 17:47:42;;;;;;;5.90;4.78;;;;;;;25.00;38.03;97867.25;10443224;28;20130;-63
2023/09/10 17:53:03;;;;;;;6.47;4.43;;;;;;;24.78;38.46;97861.94;10429280;28;20044;-62
2023/09/10 17:58:26;;;;;;;8.52;4.95;;;;;;;24.57;38.89;97876.63;10457870;28;20056;-63
2023/09/10 18:03:47;;;;;;;;;;;;;;;24.41;40.51;97882.81;10457821;28;20076;-63
2023/09/10 18:09:08;;;;;;;10.38;6.38;;;;;;;24.28;39.83;97879.75;10457295;28;19921;-63
2023/09/10 18:14:28;;;;;;;9.10;5.28;;;;;;;24.17;40.00;97886.00;10442467;28;20073;-63
2023/09/10 18:19:49;;;;;;;8.27;4.90;;;;;;;24.01;40.25;97880.00;10456441;28;20440;-63
2023/09/10 18:25:10;;;;;;;10.48;5.55;;;;;;;23.83;40.78;97895.38;10456934;28;20072;-62
2023/09/10 18:30:31;;;;;;;5.65;4.88;;;;;;;23.72;41.10;97896.63;10456942;28;20080;-62
2023/09/10 18:35:52;;;;;;;10.65;6.03;;;;;;;23.63;41.59;97907.13;10441779;28;20053;-62
2023/09/10 18:41:13;;;;;;;7.97;5.25;;;;;;;23.54;41.62;97893.41;10456737;28;20045;-62
2023/09/10 18:46:35;;;;;;;10.10;5.18;;;;;;;23.43;41.95;97896.06;10456597;28;20076;-62
2023/09/10 18:52:09;;;;;;;7.38;5.00;;;;;;;23.35;42.39;97895.19;10441657;28;20041;-62
2023/09/10 18:57:30;;;;;;;6.45;5.22;;;;;;;23.29;42.18;97901.50;10441558;28;20048;-62
2023/09/10 19:02:51;;;;;;;8.13;5.68;;;;;;;23.24;42.50;97902.81;10456080;28;20068;-63
2023/09/10 19:08:12;;;;;;;7.95;5.45;;;;;;;23.20;42.93;97899.88;10456029;28;20483;-62
2023/09/10 19:13:33;;;;;;;11.23;5.93;;;;;;;23.13;43.08;97899.03;10441135;28;20041;-62
2023/09/10 19:18:54;;;;;;;8.35;5.60;;;;;;;23.07;43.27;97898.19;10456116;28;20041;-62
2023/09/10 19:24:15;;;;;;;10.82;5.53;;;;;;;23.00;43.36;97905.16;10455568;28;20516;-62
2023/09/10 19:29:36;;;;;;;8.02;5.65;;;;;;;22.93;43.47;97901.44;10459356;28;20041;-62
2023/09/10 19:34:58;;;;;;;11.18;6.28;;;;;;;22.94;43.61;97905.03;10448781;28;20045;-62
2023/09/10 19:40:19;;;;;;;10.13;6.35;;;;;;;22.90;43.51;97896.41;10463165;28;20052;-62
2023/09/10 19:45:40;;;;;;;6.50;5.15;;;;;;;22.83;43.76;97901.22;10463115;28;20056;-62
2023/09/10 19:51:03;;;;;;;7.63;5.53;;;;;;;22.78;43.82;97899.69;10462902;28;20139;-62
2023/09/10 19:56:26;;;;;;;7.80;5.88;;;;;;;22.74;44.24;97899.59;10462719;28;20537;-62
2023/09/10 20:01:49;;;;;;;11.10;5.82;;;;;;;22.67;44.14;97906.53;10462063;28;20083;-62
2023/09/10 20:07:10;;;;;;;9.80;5.70;;;;;;;22.59;44.49;97904.25;10462269;28;20045;-62
2023/09/10 20:12:31;;;;;;;9.23;6.22;;;;;;;22.32;44.73;97905.75;10462208;28;20048;-62
2023/09/10 20:17:52;;;;;;;10.35;6.15;;;;;;;22.12;44.98;97899.59;10446860;28;20045;-62
2023/09/10 20:23:13;;;;;;;7.07;4.78;;;;;;;22.07;45.51;97895.19;10461671;28;20442;-62
2023/09/10 20:28:34;;;;;;;9.18;5.30;;;;;;;22.06;45.48;97902.97;10461452;28;20069;-62
2023/09/10 20:33:55;;;;;;;8.20;5.35;;;;;;;22.00;45.79;97897.13;10461316;28;20066;-62
2023/09/10 20:39:15;;;;;;;8.20;5.07;;;;;;;21.91;45.96;97899.06;10460310;28;20068;-62
2023/09/10 20:44:36;;;;;;;7.70;5.43;;;;;;;21.90;46.44;97894.00;10460703;28;20132;-62
2023/09/10 20:49:57;;;;;;;8.27;5.40;;;;;;;21.87;46.46;97890.41;10445734;28;20104;-62
2023/09/10 20:55:18;;;;;;;13.70;4.85;;;;;;;21.86;46.63;97906.00;10460383;28;20108;-62
2023/09/10 21:00:40;;;;;;;5.88;4.95;;;;;;;21.89;46.62;97896.13;10460163;28;20576;-62
2023/09/10 21:06:00;;;;;;;9.40;5.63;;;;;;;21.92;47.07;97894.81;10445068;28;20057;-62
2023/09/10 21:11:21;;;;;;;10.77;5.70;;;;;;;21.91;46.94;97893.38;10444863;28;20159;-62
2023/09/10 21:16:42;;;;;;;8.32;5.03;;;;;;;21.95;47.14;97895.56;10459425;28;20139;-63
2023/09/10 21:22:03;;;;;;;8.57;5.22;;;;;;;21.90;47.75;97894.75;10459357;28;20129;-63
2023/09/10 21:27:24;;;;;;;8.95;5.32;;;;;;;21.87;47.69;97892.53;10459344;28;20189;-62
2023/09/10 21:32:45;;;;;;;6.18;4.72;;;;;;;21.84;48.02;97891.03;10458927;28;20080;-62
2023/09/10 21:38:05;;;;;;;6.57;4.72;;;;;;;21.84;47.93;97888.91;10443844;28;20138;-62
2023/09/10 21:43:26;;;;;;;8.48;5.00;;;;;;;21.84;47.60;97891.03;10458252;28;20129;-62
2023/09/10 21:48:47;;;;;;;6.88;5.15;;;;;;;21.77;47.67;97887.31;10458296;28;20478;-62
2023/09/10 21:54:08;;;;;;;8.10;5.28;;;;;;;21.66;48.27;97885.59;10456929;28;20482;-62
2023/09/10 21:59:28;;;;;;;6.07;4.75;;;;;;;21.56;48.41;97891.75;10457933;28;20527;-62
2023/09/10 22:04:49;;;;;;;6.97;3.92;;;;;;;21.55;48.63;97884.63;10457532;28;20140;-62
2023/09/10 22:10:10;;;;;;;6.78;4.53;;;;;;;21.59;48.81;97884.00;10457572;28;20069;-62
2023/09/10 22:15:31;;;;;;;5.82;4.47;;;;;;;21.61;48.56;97881.19;10457536;28;20120;-62
2023/09/10 22:20:53;;;;;;;7.10;4.18;;;;;;;21.59;48.66;97878.31;10442185;28;20397;-62
2023/09/10 22:26:14;;;;;;;7.85;4.72;;;;;;;21.58;49.24;97871.19;10457194;28;20163;-62
2023/09/10 22:31:35;;;;;;;6.50;4.65;;;;;;;21.55;49.33;97873.25;10456964;28;20452;-62
2023/09/10 22:36:56;;;;;;;6.95;4.07;;;;;;;21.54;49.33;97874.66;10456680;28;20128;-63
2023/09/10 22:42:17;;;;;;;6.88;5.05;;;;;;;21.48;49.60;97885.13;10456465;28;20048;-62
2023/09/10 22:47:38;;;;;;;10.40;4.75;;;;;;;21.46;49.89;97885.06;10456571;28;20467;-62
2023/09/10 22:52:59;;;;;;;9.73;4.72;;;;;;;21.39;49.81;97876.38;10456555;28;20136;-62
2023/09/10 22:58:20;;;;;;;9.30;4.60;;;;;;;21.37;49.87;97864.25;10456365;28;20051;-62
2023/09/10 23:03:40;;;;;;;7.47;4.95;;;;;;;21.32;50.25;97874.75;10458269;28;20559;-62
2023/09/10 23:09:02;;;;;;;6.82;4.43;;;;;;;21.26;50.33;97876.69;10464441;28;20076;-62
2023/09/10 23:14:23;;;;;;;6.60;4.78;;;;;;;21.19;50.67;97880.75;10449514;28;20456;-62
2023/09/10 23:19:45;;;;;;;9.98;4.88;;;;;;;21.13;51.21;97876.38;10464206;28;20172;-62
2023/09/10 23:25:06;;;;;;;8.70;4.88;;;;;;;21.08;51.17;97874.06;10463859;28;20406;-62
2023/09/10 23:30:27;;;;;;;11.63;5.18;;;;;;;21.06;50.96;97874.00;10463862;28;20102;-62
2023/09/10 23:35:48;;;;;;;6.75;4.80;;;;;;;21.03;51.62;97866.81;10463607;28;20072;-62
2023/09/10 23:41:08;;;;;;;7.28;5.03;;;;;;;21.03;51.27;97873.22;10463356;28;20121;-62
2023/09/10 23:46:29;;;;;;;5.80;4.35;;;;;;;21.06;51.56;97859.81;10463085;28;20075;-62
2023/09/10 23:51:50;;;;;;;6.35;4.78;;;;;;;21.04;51.81;97851.97;10462982;28;20637;-62
2023/09/10 23:57:10;;;;;;;8.23;4.50;;;;;;;21.02;51.43;97849.06;10462516;28;20057;-62
